createdAt,value
2023-01-12T00:02:18.691Z,7.40
2023-01-12T00:04:45.227Z,7.41
2023-01-12T00:07:12.769Z,7.38
2023-01-12T00:09:39.237Z,7.36
2023-01-12T00:12:07.150Z,7.36
2023-01-12T00:14:36.917Z,7.32
2023-01-12T00:17:03.938Z,7.28
2023-01-12T00:19:31.428Z,7.18
2023-01-12T00:22:00.383Z,7.13
2023-01-12T00:24:28.074Z,7.10
2023-01-12T00:26:54.736Z,7.08
2023-01-12T00:29:21.304Z,7.10
2023-01-12T00:31:47.821Z,7.13
2023-01-12T00:34:14.286Z,7.14
2023-01-12T00:36:40.902Z,7.16
2023-01-12T00:39:07.367Z,7.15
2023-01-12T00:41:52.550Z,7.14
2023-01-12T00:44:37.263Z,7.18
2023-01-12T00:47:05.980Z,7.20
2023-01-12T00:49:32.355Z,7.22
2023-01-12T00:51:58.711Z,7.20
2023-01-12T00:54:25.308Z,7.19
2023-01-12T00:56:51.715Z,7.19
2023-01-12T00:59:18.067Z,7.21
2023-01-12T01:01:44.545Z,7.19
2023-01-12T01:04:11.009Z,7.15
2023-01-12T01:06:38.779Z,7.14
2023-01-12T01:09:05.380Z,7.12
2023-01-12T01:11:31.990Z,7.10
2023-01-12T01:13:59.171Z,7.12
2023-01-12T01:16:25.691Z,7.16
2023-01-12T01:18:52.240Z,7.15
2023-01-12T01:21:21.532Z,7.19
2023-01-12T01:23:48.168Z,7.18
2023-01-12T01:26:16.521Z,7.17
2023-01-12T01:28:43.276Z,7.17
2023-01-12T01:31:10.704Z,7.14
2023-01-12T01:33:37.460Z,7.14
2023-01-12T01:36:04.019Z,7.11
2023-01-12T01:38:30.688Z,7.10
2023-01-12T01:40:57.079Z,7.08
2023-01-12T01:43:25.029Z,7.06
2023-01-12T01:46:00.499Z,7.07
2023-01-12T01:48:27.457Z,7.06
2023-01-12T01:50:57.567Z,7.06
2023-01-12T01:53:24.966Z,7.03
2023-01-12T01:55:53.401Z,7.03
2023-01-12T01:58:26.360Z,7.02
2023-01-12T02:00:53.189Z,6.98
2023-01-12T02:03:19.908Z,6.95
2023-01-12T02:05:47.171Z,7.01
2023-01-12T02:08:22.460Z,7.05
2023-01-12T02:10:49.252Z,7.06
2023-01-12T02:13:34.130Z,7.09
2023-01-12T02:16:40.863Z,7.11
2023-01-12T02:19:24.964Z,7.12
2023-01-12T02:21:51.310Z,7.12
2023-01-12T02:24:45.280Z,7.09
2023-01-12T02:27:39.714Z,7.11
2023-01-12T02:30:18.545Z,7.11
2023-01-12T02:32:54.689Z,7.08
2023-01-12T02:35:43.366Z,7.07
2023-01-12T02:38:31.193Z,7.09
2023-01-12T02:41:07.841Z,7.12
2023-01-12T02:43:35.123Z,7.08
2023-01-12T02:46:14.380Z,7.07
2023-01-12T02:48:43.942Z,7.05
2023-01-12T02:51:13.833Z,7.05
2023-01-12T02:53:59.846Z,7.06
2023-01-12T02:56:30.555Z,7.10
2023-01-12T02:58:58.339Z,7.15
2023-01-12T03:01:25.540Z,7.15
2023-01-12T03:03:52.117Z,7.17
2023-01-12T03:06:18.554Z,7.20
2023-01-12T03:08:45.309Z,7.26
2023-01-12T03:11:18.732Z,7.27
2023-01-12T03:13:54.157Z,7.30
2023-01-12T03:16:25.873Z,7.38
2023-01-12T03:18:55.733Z,7.42
2023-01-12T03:21:27.033Z,7.42
2023-01-12T03:24:14.485Z,7.46
2023-01-12T03:26:43.090Z,7.47
2023-01-12T03:29:30.553Z,7.49
2023-01-12T03:31:57.244Z,7.56
2023-01-12T03:34:23.599Z,7.56
2023-01-12T03:36:53.176Z,7.58
2023-01-12T03:39:42.407Z,7.59
2023-01-12T03:42:13.397Z,7.58
2023-01-12T03:45:15.251Z,7.57
2023-01-12T03:47:41.976Z,7.56
2023-01-12T03:50:27.210Z,7.55
2023-01-12T03:52:54.394Z,7.58
2023-01-12T03:55:23.083Z,7.56
2023-01-12T03:57:49.539Z,7.58
2023-01-12T04:00:16.180Z,7.62
2023-01-12T04:02:43.469Z,7.62
2023-01-12T04:05:09.826Z,7.63
2023-01-12T04:07:36.398Z,7.63
2023-01-12T04:10:02.817Z,7.65
2023-01-12T04:12:29.451Z,7.66
2023-01-12T04:14:55.791Z,7.66
2023-01-12T04:17:25.323Z,7.67
2023-01-12T04:19:51.987Z,7.66
2023-01-12T04:22:37.251Z,7.65
2023-01-12T04:25:04.211Z,7.65
2023-01-12T04:27:30.821Z,7.67
2023-01-12T04:29:57.201Z,7.66
2023-01-12T04:32:23.904Z,7.65
2023-01-12T04:34:50.343Z,7.65
2023-01-12T04:37:16.981Z,7.65
2023-01-12T04:39:43.323Z,7.65
2023-01-12T04:42:29.851Z,7.64
2023-01-12T04:44:56.222Z,7.63
2023-01-12T04:47:22.827Z,7.62
2023-01-12T04:49:49.212Z,7.62
2023-01-12T04:52:15.865Z,7.60
2023-01-12T04:54:42.248Z,7.59
2023-01-12T04:57:08.623Z,7.59
2023-01-12T04:59:34.963Z,7.58
2023-01-12T05:02:01.352Z,7.59
2023-01-12T05:04:27.885Z,7.58
2023-01-12T05:06:54.490Z,7.58
2023-01-12T05:09:39.459Z,7.58
2023-01-12T05:12:05.974Z,7.56
2023-01-12T05:14:32.360Z,7.56
2023-01-12T05:16:59.801Z,7.54
2023-01-12T05:19:26.141Z,7.58
2023-01-12T05:21:52.505Z,7.59
2023-01-12T05:24:18.943Z,7.59
2023-01-12T05:26:45.334Z,7.58
2023-01-12T05:29:11.885Z,7.61
2023-01-12T05:31:38.519Z,7.63
2023-01-12T05:34:04.844Z,7.65
2023-01-12T05:36:31.330Z,7.65
2023-01-12T05:38:57.690Z,7.65
2023-01-12T05:41:24.270Z,7.68
2023-01-12T05:43:50.728Z,7.69
2023-01-12T05:46:22.974Z,7.74
2023-01-12T05:48:49.803Z,7.71
2023-01-12T05:51:16.782Z,7.70
2023-01-12T05:53:43.405Z,7.69
2023-01-12T05:56:30.889Z,7.69
2023-01-12T05:58:58.909Z,7.70
2023-01-12T06:01:25.524Z,7.70
2023-01-12T06:03:53.045Z,7.68
2023-01-12T06:06:20.053Z,7.70
2023-01-12T06:08:46.710Z,7.74
2023-01-12T06:11:33.138Z,7.80
2023-01-12T06:14:00.149Z,7.85
2023-01-12T06:16:27.026Z,7.83
2023-01-12T06:18:53.401Z,7.85
2023-01-12T06:21:19.779Z,7.87
2023-01-12T06:23:46.144Z,7.88
2023-01-12T06:26:12.550Z,7.89
2023-01-12T06:28:39.479Z,7.99
2023-01-12T06:31:07.270Z,8.01
2023-01-12T06:33:33.775Z,8.03
2023-01-12T06:36:00.202Z,8.03
2023-01-12T06:38:27.890Z,8.03
2023-01-12T06:40:57.353Z,8.03
2023-01-12T06:43:24.502Z,8.02
2023-01-12T06:45:53.218Z,8.03
2023-01-12T06:48:22.426Z,8.06
2023-01-12T06:50:48.769Z,8.05
2023-01-12T06:53:15.116Z,8.11
2023-01-12T06:55:48.409Z,8.10
2023-01-12T06:58:14.774Z,8.10
2023-01-12T07:00:41.118Z,8.12
2023-01-12T07:03:07.671Z,8.15
2023-01-12T07:05:34.052Z,8.12
2023-01-12T07:08:00.484Z,8.11
2023-01-12T07:10:27.155Z,8.12
2023-01-12T07:12:53.642Z,8.11
2023-01-12T07:15:19.992Z,8.12
2023-01-12T07:17:46.404Z,8.17
2023-01-12T07:20:12.766Z,8.18
2023-01-12T07:22:39.410Z,8.17
2023-01-12T07:25:06.442Z,8.15
2023-01-12T07:27:32.791Z,8.19
2023-01-12T07:29:59.187Z,8.16
2023-01-12T07:32:27.198Z,8.17
2023-01-12T07:34:53.554Z,8.16
2023-01-12T07:37:20.384Z,8.18
2023-01-12T07:39:46.924Z,8.25
2023-01-12T07:42:25.566Z,8.28
2023-01-12T07:44:52.075Z,8.30
2023-01-12T07:47:18.411Z,8.33
2023-01-12T07:49:44.818Z,8.35
2023-01-12T07:52:12.445Z,8.35
2023-01-12T07:54:38.936Z,8.39
2023-01-12T07:57:08.312Z,8.47
2023-01-12T07:59:34.752Z,8.51
2023-01-12T08:02:01.216Z,8.51
2023-01-12T08:04:27.574Z,8.47
2023-01-12T08:06:53.944Z,8.46
2023-01-12T08:09:20.301Z,8.51
2023-01-12T08:11:46.658Z,8.53
2023-01-12T08:14:23.200Z,8.52
2023-01-12T08:16:49.721Z,8.49
2023-01-12T08:19:21.882Z,8.44
2023-01-12T08:21:52.595Z,8.37
2023-01-12T08:24:23.287Z,8.31
2023-01-12T08:26:51.340Z,8.28
2023-01-12T08:29:29.722Z,8.30
2023-01-12T08:32:02.644Z,8.28
2023-01-12T08:34:31.669Z,8.30
2023-01-12T08:36:58.339Z,8.30
2023-01-12T08:39:24.921Z,8.31
2023-01-12T08:41:51.384Z,8.34
2023-01-12T08:44:17.807Z,8.33
2023-01-12T08:46:52.088Z,8.29
2023-01-12T08:49:24.545Z,8.33
2023-01-12T08:51:51.220Z,8.36
2023-01-12T08:54:18.120Z,8.39
2023-01-12T08:56:44.532Z,8.38
2023-01-12T08:59:12.188Z,8.40
2023-01-12T09:01:38.826Z,8.33
2023-01-12T09:04:05.738Z,8.31
2023-01-12T09:06:36.385Z,8.34
2023-01-12T09:09:08.743Z,8.32
2023-01-12T09:11:35.539Z,8.40
2023-01-12T09:14:01.942Z,8.42
2023-01-12T09:16:29.590Z,8.43
2023-01-12T09:18:56.552Z,8.45
2023-01-12T09:21:24.472Z,8.46
2023-01-12T09:23:51.294Z,8.49
2023-01-12T09:26:19.584Z,8.49
2023-01-12T09:28:46.027Z,8.52
2023-01-12T09:31:14.380Z,8.52
2023-01-12T09:33:40.923Z,8.54
2023-01-12T09:36:12.064Z,8.59
2023-01-12T09:38:39.457Z,8.59
2023-01-12T09:41:47.645Z,8.62
2023-01-12T09:44:49.982Z,8.67
2023-01-12T09:47:39.707Z,8.66
2023-01-12T09:50:10.053Z,8.69
2023-01-12T09:52:46.052Z,8.69
2023-01-12T09:55:20.950Z,8.69
2023-01-12T09:58:00.461Z,8.71
2023-01-12T10:00:28.216Z,8.71
2023-01-12T10:03:05.782Z,8.78
2023-01-12T10:05:46.403Z,8.85
2023-01-12T10:08:17.075Z,8.92
2023-01-12T10:10:59.576Z,8.96
2023-01-12T10:13:28.495Z,9.01
2023-01-12T10:15:58.231Z,9.02
2023-01-12T10:18:47.714Z,9.04
2023-01-12T10:21:14.143Z,9.05
2023-01-12T10:23:40.496Z,9.09
2023-01-12T10:26:16.270Z,9.18
2023-01-12T10:28:43.110Z,9.22
2023-01-12T10:31:12.767Z,9.22
2023-01-12T10:33:41.190Z,9.19
2023-01-12T10:36:18.046Z,9.21
2023-01-12T10:38:59.496Z,9.20
2023-01-12T10:41:27.035Z,9.21
2023-01-12T10:43:56.395Z,9.20
2023-01-12T10:46:24.277Z,9.20
2023-01-12T10:48:51.863Z,9.21
2023-01-12T10:51:20.693Z,9.22
2023-01-12T10:54:17.856Z,9.24
2023-01-12T10:56:56.065Z,9.26
2023-01-12T10:59:24.847Z,9.29
2023-01-12T11:02:06.945Z,9.29
2023-01-12T11:04:47.740Z,9.33
2023-01-12T11:07:15.044Z,9.34
2023-01-12T11:09:42.336Z,9.31
2023-01-12T11:12:24.712Z,9.30
2023-01-12T11:14:58.143Z,9.30
2023-01-12T11:17:24.498Z,9.36
2023-01-12T11:19:50.869Z,9.36
2023-01-12T11:22:36.089Z,9.35
2023-01-12T11:25:05.557Z,9.35
2023-01-12T11:27:35.798Z,9.38
2023-01-12T11:30:36.494Z,9.38
2023-01-12T11:33:23.008Z,9.41
2023-01-12T11:36:14.722Z,9.42
2023-01-12T11:39:03.861Z,9.45
2023-01-12T11:41:37.460Z,9.45
2023-01-12T11:44:21.128Z,9.45
2023-01-12T11:46:56.835Z,9.43
2023-01-12T11:49:24.555Z,9.40
2023-01-12T11:51:53.473Z,9.40
2023-01-12T11:54:20.075Z,9.40
2023-01-12T11:57:14.813Z,9.38
2023-01-12T11:59:59.484Z,9.32
2023-01-12T12:02:37.089Z,9.27
2023-01-12T12:05:22.387Z,9.25
2023-01-12T12:08:07.635Z,9.21
2023-01-12T12:10:46.350Z,9.24
2023-01-12T12:13:30.549Z,9.23
2023-01-12T12:16:28.163Z,9.27
2023-01-12T12:19:29.620Z,9.31
2023-01-12T12:22:07.377Z,9.31
2023-01-12T12:24:36.991Z,9.31
2023-01-12T12:27:21.652Z,9.31
2023-01-12T12:29:57.241Z,9.33
2023-01-12T12:32:27.083Z,9.30
2023-01-12T12:35:31.088Z,9.31
2023-01-12T12:38:06.464Z,9.34
2023-01-12T12:41:10.574Z,9.36
2023-01-12T12:43:55.374Z,9.38
2023-01-12T12:46:43.661Z,9.43
2023-01-12T12:49:15.787Z,9.43
2023-01-12T12:51:42.191Z,9.43
2023-01-12T12:54:13.252Z,9.45
2023-01-12T12:56:39.624Z,9.45
2023-01-12T12:59:06.114Z,9.49
2023-01-12T13:01:33.061Z,9.50
2023-01-12T13:04:00.537Z,9.48
2023-01-12T13:06:48.628Z,9.48
2023-01-12T13:09:15.408Z,9.50
2023-01-12T13:11:54.893Z,9.50
2023-01-12T13:14:30.654Z,9.50
2023-01-12T13:17:03.351Z,9.48
2023-01-12T13:19:43.157Z,9.48
2023-01-12T13:22:44.149Z,9.46
2023-01-12T13:25:16.738Z,9.48
2023-01-12T13:28:01.489Z,9.46
2023-01-12T13:30:30.763Z,9.45
2023-01-12T13:33:01.036Z,9.45
2023-01-12T13:35:33.225Z,9.45
2023-01-12T13:38:27.147Z,9.48
2023-01-12T13:41:10.125Z,9.48
2023-01-12T13:43:38.586Z,9.50
2023-01-12T13:46:12.664Z,9.50
2023-01-12T13:48:42.207Z,9.51
2023-01-12T13:51:33.516Z,9.53
2023-01-12T13:54:10.015Z,9.54
2023-01-12T13:56:36.809Z,9.55
2023-01-12T13:59:04.963Z,9.55
2023-01-12T14:01:36.237Z,9.56
2023-01-12T14:04:19.934Z,9.53
2023-01-12T14:07:14.701Z,9.54
2023-01-12T14:09:47.420Z,9.56
2023-01-12T14:12:32.588Z,9.56
2023-01-12T14:15:39.064Z,9.57
2023-01-12T14:18:07.037Z,9.56
2023-01-12T14:20:41.354Z,9.57
2023-01-12T14:23:17.736Z,9.57
2023-01-12T14:25:44.527Z,9.55
2023-01-12T14:28:18.874Z,9.57
2023-01-12T14:30:54.646Z,9.57
2023-01-12T14:33:31.668Z,9.60
2023-01-12T14:36:03.419Z,9.62
2023-01-12T14:38:30.166Z,9.61
2023-01-12T14:41:05.237Z,9.63
2023-01-12T14:43:51.271Z,9.64
2023-01-12T14:46:29.004Z,9.63
2023-01-12T14:49:00.287Z,9.63
2023-01-12T14:51:34.131Z,9.64
2023-01-12T14:54:03.084Z,9.61
2023-01-12T14:56:42.491Z,9.60
2023-01-12T14:59:13.749Z,9.57
2023-01-12T15:01:40.741Z,9.58
2023-01-12T15:04:08.240Z,9.58
2023-01-12T15:06:40.675Z,9.55
2023-01-12T15:09:29.118Z,9.52
2023-01-12T15:11:55.724Z,9.48
2023-01-12T15:14:26.985Z,9.46
2023-01-12T15:17:12.295Z,9.43
2023-01-12T15:19:57.240Z,9.43
2023-01-12T15:22:45.427Z,9.39
2023-01-12T15:25:32.003Z,9.38
2023-01-12T15:28:01.135Z,9.38
2023-01-12T15:30:27.785Z,9.36
2023-01-12T15:32:54.522Z,9.35
2023-01-12T15:35:23.562Z,9.35
2023-01-12T15:37:50.977Z,9.32
2023-01-12T15:40:18.074Z,9.34
2023-01-12T15:42:44.663Z,9.34
2023-01-12T15:45:35.082Z,9.34
2023-01-12T15:48:02.327Z,9.34
2023-01-12T15:50:29.266Z,9.34
2023-01-12T15:52:58.175Z,9.34
2023-01-12T15:55:24.646Z,9.34
2023-01-12T15:57:52.109Z,9.34
2023-01-12T16:00:20.615Z,9.34
2023-01-12T16:02:50.511Z,9.35
2023-01-12T16:05:18.295Z,9.36
2023-01-12T16:07:47.474Z,9.34
2023-01-12T16:10:14.858Z,9.36
2023-01-12T16:12:41.426Z,9.38
2023-01-12T16:15:10.397Z,9.40
2023-01-12T16:17:36.781Z,9.41
2023-01-12T16:20:03.311Z,9.40
2023-01-12T16:22:30.497Z,9.39
2023-01-12T16:24:56.909Z,9.38
2023-01-12T16:27:25.838Z,9.38
2023-01-12T16:29:52.650Z,9.35
2023-01-12T16:32:22.371Z,9.36
2023-01-12T16:34:48.735Z,9.33
2023-01-12T16:37:15.276Z,9.36
2023-01-12T16:39:41.940Z,9.35
2023-01-12T16:42:08.787Z,9.34
2023-01-12T16:44:40.046Z,9.32
2023-01-12T16:47:11.461Z,9.33
2023-01-12T16:49:38.094Z,9.32
2023-01-12T16:52:04.822Z,9.32
2023-01-12T16:54:31.261Z,9.31
2023-01-12T16:56:58.802Z,9.32
2023-01-12T16:59:25.627Z,9.33
2023-01-12T17:01:52.412Z,9.31
2023-01-12T17:04:19.936Z,9.30
2023-01-12T17:06:47.176Z,9.30
2023-01-12T17:09:14.376Z,9.30
2023-01-12T17:11:41.315Z,9.31
2023-01-12T17:14:24.248Z,9.31
2023-01-12T17:16:56.385Z,9.31
2023-01-12T17:19:26.152Z,9.30
2023-01-12T17:21:54.499Z,9.33
2023-01-12T17:24:21.430Z,9.34
2023-01-12T17:26:49.419Z,9.33
2023-01-12T17:29:15.808Z,9.35
2023-01-12T17:31:42.446Z,9.36
2023-01-12T17:34:11.111Z,9.38
2023-01-12T17:36:37.820Z,9.39
2023-01-12T17:39:04.323Z,9.40
2023-01-12T17:41:49.340Z,9.42
2023-01-12T17:44:15.956Z,9.42
2023-01-12T17:46:43.103Z,9.43
2023-01-12T17:49:09.847Z,9.44
2023-01-12T17:51:36.327Z,9.43
2023-01-12T17:54:03.639Z,9.44
2023-01-12T17:56:31.464Z,9.44
2023-01-12T17:58:58.117Z,9.43
2023-01-12T18:01:25.761Z,9.45
2023-01-12T18:03:52.229Z,9.46
2023-01-12T18:06:26.052Z,9.46
2023-01-12T18:08:52.919Z,9.44
2023-01-12T18:11:19.397Z,9.45
2023-01-12T18:13:45.883Z,9.48
2023-01-12T18:16:13.495Z,9.49
2023-01-12T18:18:41.964Z,9.45
2023-01-12T18:21:20.559Z,9.45
2023-01-12T18:23:47.892Z,9.44
2023-01-12T18:26:16.056Z,9.41
2023-01-12T18:28:42.588Z,9.43
2023-01-12T18:31:10.988Z,9.44
2023-01-12T18:33:37.410Z,9.42
2023-01-12T18:36:08.812Z,9.38
2023-01-12T18:38:35.474Z,9.41
2023-01-12T18:41:21.029Z,9.40
2023-01-12T18:43:51.600Z,9.37
2023-01-12T18:46:18.139Z,9.37
2023-01-12T18:48:45.428Z,9.36
2023-01-12T18:51:30.419Z,9.34
2023-01-12T18:53:56.774Z,9.35
2023-01-12T18:56:23.827Z,9.36
2023-01-12T18:58:50.777Z,9.38
2023-01-12T19:01:21.513Z,9.37
2023-01-12T19:03:48.550Z,9.36
2023-01-12T19:06:43.894Z,9.35
2023-01-12T19:09:30.373Z,9.36
2023-01-12T19:11:56.753Z,9.38
2023-01-12T19:14:41.792Z,9.35
2023-01-12T19:17:27.970Z,9.33
2023-01-12T19:19:54.567Z,9.33
2023-01-12T19:22:39.661Z,9.36
2023-01-12T19:25:25.038Z,9.34
2023-01-12T19:28:09.699Z,9.33
2023-01-12T19:30:37.867Z,9.32
2023-01-12T19:33:08.877Z,9.33
2023-01-12T19:35:36.638Z,9.37
2023-01-12T19:38:03.018Z,9.36
2023-01-12T19:40:37.002Z,9.33
2023-01-12T19:43:23.569Z,9.31
2023-01-12T19:45:51.509Z,9.32
2023-01-12T19:48:19.416Z,9.30
2023-01-12T19:50:45.825Z,9.30
2023-01-12T19:53:18.455Z,9.27
2023-01-12T19:55:45.016Z,9.24
2023-01-12T19:58:11.414Z,9.29
2023-01-12T20:00:43.236Z,9.29
2023-01-12T20:03:10.711Z,9.28
2023-01-12T20:05:38.447Z,9.27
2023-01-12T20:08:05.000Z,9.27
2023-01-12T20:10:31.404Z,9.30
2023-01-12T20:12:57.802Z,9.31
2023-01-12T20:15:24.362Z,9.29
2023-01-12T20:17:50.819Z,9.29
2023-01-12T20:20:17.435Z,9.29
2023-01-12T20:22:43.884Z,9.27
2023-01-12T20:25:10.313Z,9.26
2023-01-12T20:27:36.980Z,9.29
2023-01-12T20:30:04.858Z,9.29
2023-01-12T20:32:32.449Z,9.29
2023-01-12T20:35:01.835Z,9.29
2023-01-12T20:37:28.215Z,9.32
2023-01-12T20:39:58.014Z,9.28
2023-01-12T20:42:24.631Z,9.29
2023-01-12T20:44:51.457Z,9.28
2023-01-12T20:47:19.236Z,9.28
2023-01-12T20:49:48.634Z,9.27
2023-01-12T20:52:14.991Z,9.27
2023-01-12T20:54:41.524Z,9.30
2023-01-12T20:57:10.070Z,9.32
2023-01-12T20:59:37.552Z,9.31
2023-01-12T21:02:04.330Z,9.29
2023-01-12T21:04:31.796Z,9.25
2023-01-12T21:06:58.628Z,9.25
2023-01-12T21:09:25.151Z,9.25
2023-01-12T21:11:51.733Z,9.26
2023-01-12T21:14:19.435Z,9.24
2023-01-12T21:16:46.586Z,9.28
2023-01-12T21:19:13.147Z,9.28
2023-01-12T21:21:39.581Z,9.28
2023-01-12T21:24:06.196Z,9.32
2023-01-12T21:26:32.733Z,9.32
2023-01-12T21:28:59.186Z,9.30
2023-01-12T21:31:25.617Z,9.32
2023-01-12T21:33:52.011Z,9.29
2023-01-12T21:36:19.344Z,9.31
2023-01-12T21:38:52.425Z,9.31
2023-01-12T21:41:21.062Z,9.30
2023-01-12T21:43:48.934Z,9.30
2023-01-12T21:46:15.543Z,9.30
2023-01-12T21:48:41.909Z,9.34
2023-01-12T21:51:13.674Z,9.36
2023-01-12T21:53:41.866Z,9.33
2023-01-12T21:56:10.219Z,9.32
2023-01-12T21:58:36.670Z,9.32
2023-01-12T22:01:07.907Z,9.33
2023-01-12T22:03:34.357Z,9.33
2023-01-12T22:06:04.316Z,9.34
2023-01-12T22:08:30.901Z,9.36
2023-01-12T22:10:57.237Z,9.36
2023-01-12T22:13:23.633Z,9.35
2023-01-12T22:15:52.139Z,9.36
2023-01-12T22:18:18.834Z,9.33
2023-01-12T22:20:45.303Z,9.31
2023-01-12T22:23:12.487Z,9.32
2023-01-12T22:25:39.106Z,9.31
2023-01-12T22:28:05.477Z,9.27
2023-01-12T22:30:31.896Z,9.26
2023-01-12T22:32:58.301Z,9.24
2023-01-12T22:35:26.009Z,9.22
2023-01-12T22:37:52.442Z,9.23
2023-01-12T22:40:18.866Z,9.22
2023-01-12T22:43:03.905Z,9.25
2023-01-12T22:45:30.277Z,9.25
2023-01-12T22:47:57.001Z,9.25
2023-01-12T22:50:24.128Z,9.26
2023-01-12T22:52:52.563Z,9.26
2023-01-12T22:55:20.035Z,9.28
2023-01-12T22:57:46.435Z,9.26
2023-01-12T23:00:13.554Z,9.24
2023-01-12T23:03:15.676Z,9.23
2023-01-12T23:05:56.203Z,9.22
2023-01-12T23:08:22.856Z,9.22
2023-01-12T23:10:49.641Z,9.23
2023-01-12T23:13:17.768Z,9.23
2023-01-12T23:15:54.284Z,9.23
2023-01-12T23:18:21.909Z,9.24
2023-01-12T23:20:49.158Z,9.22
2023-01-12T23:23:17.855Z,9.21
2023-01-12T23:25:44.852Z,9.24
2023-01-12T23:28:11.820Z,9.24
2023-01-12T23:30:38.337Z,9.24
2023-01-12T23:33:05.193Z,9.25
2023-01-12T23:35:39.498Z,9.25
2023-01-12T23:38:06.822Z,9.24
2023-01-12T23:40:33.371Z,9.25
2023-01-12T23:43:00.616Z,9.25
2023-01-12T23:45:27.262Z,9.22
2023-01-12T23:47:53.641Z,9.20
2023-01-12T23:50:20.287Z,9.22
2023-01-12T23:52:48.887Z,9.19
2023-01-12T23:55:15.393Z,9.20
2023-01-12T23:57:42.016Z,9.18
